Time;durP1;ratioP1;P1;durP2;ratioP2;P2;SDS_P1;SDS_P2;PMS_P1;PMS_P2;Temp;Humidity;BMP_temperature;BMP_pressure;BME280_temperature;BME280_humidity;BME280_pressure;Samples;Min_cycle;Max_cycle;Signal;HPM_P1;HPM_P2
2020/12/15 00:02:23;;;;;;;20.37;14.60;;;9.50;99.90;;;;;;4397796;32;20631;-74
2020/12/15 00:04:56;;;;;;;19.80;13.90;;;9.40;99.90;;;;;;4389868;32;20151;-75
2020/12/15 00:07:23;;;;;;;20.90;15.87;;;9.40;99.90;;;;;;4390447;32;20152;-75
2020/12/15 00:09:49;;;;;;;18.27;14.50;;;9.50;99.90;;;;;;4395468;32;20223;-73
2020/12/15 00:12:16;;;;;;;24.00;15.17;;;9.50;99.90;;;;;;4400034;32;20152;-74
2020/12/15 00:14:42;;;;;;;20.27;13.93;;;9.40;99.90;;;;;;4404821;32;20595;-72
2020/12/15 00:17:08;;;;;;;17.03;12.73;;;9.40;99.90;;;;;;4403517;32;20215;-73
2020/12/15 00:19:35;;;;;;;21.33;13.63;;;9.50;99.90;;;;;;4402854;32;20154;-73
2020/12/15 00:22:01;;;;;;;17.93;12.13;;;9.50;99.90;;;;;;4394767;32;20235;-72
2020/12/15 00:24:28;;;;;;;21.50;14.23;;;9.50;99.90;;;;;;4389511;32;20168;-73
2020/12/15 00:26:55;;;;;;;22.43;14.13;;;9.50;99.90;;;;;;4390255;32;20172;-72
2020/12/15 00:29:21;;;;;;;22.37;14.70;;;9.50;99.90;;;;;;4394873;32;20183;-71
2020/12/15 00:31:55;;;;;;;18.33;13.27;;;9.40;99.90;;;;;;4395331;32;20205;-73
2020/12/15 00:34:22;;;;;;;17.97;14.33;;;9.40;99.90;;;;;;4399696;32;20152;-71
2020/12/15 00:36:48;;;;;;;17.37;12.87;;;9.40;99.90;;;;;;4390217;32;20216;-76
2020/12/15 00:39:14;;;;;;;17.33;13.63;;;9.40;99.90;;;;;;4388786;32;20219;-74
2020/12/15 00:41:48;;;;;;;21.50;15.33;;;9.40;99.90;;;;;;4395253;32;20211;-71
2020/12/15 00:44:17;;;;;;;20.43;13.93;;;9.50;99.90;;;;;;4403405;32;20208;-72
2020/12/15 00:46:48;;;;;;;23.57;16.07;;;9.40;99.90;;;;;;4402394;32;20155;-73
2020/12/15 00:49:14;;;;;;;21.47;15.53;;;9.60;99.90;;;;;;4402766;32;20228;-71
2020/12/15 00:51:40;;;;;;;22.80;15.77;;;9.40;99.90;;;;;;4404864;32;20219;-72
2020/12/15 00:54:07;;;;;;;19.67;16.00;;;9.50;99.90;;;;;;4404049;32;20279;-70
2020/12/15 00:56:34;;;;;;;19.80;17.00;;;9.50;99.90;;;;;;4403036;32;20223;-73
2020/12/15 00:59:02;;;;;;;22.73;16.40;;;9.40;99.90;;;;;;4407342;32;20523;-72
2020/12/15 01:01:28;;;;;;;23.53;18.07;;;9.30;99.90;;;;;;4405368;32;20211;-73
2020/12/15 01:03:54;;;;;;;21.23;16.70;;;9.40;99.90;;;;;;4398511;32;20195;-73
2020/12/15 01:06:22;;;;;;;19.43;15.33;;;9.40;99.90;;;;;;4393394;32;20207;-73
2020/12/15 01:08:48;;;;;;;22.43;15.93;;;9.40;99.90;;;;;;4393233;32;20295;-74
2020/12/15 01:11:15;;;;;;;22.03;16.87;;;9.50;99.90;;;;;;4393402;32;20230;-73
2020/12/15 01:13:41;;;;;;;20.70;16.37;;;9.40;99.90;;;;;;4392940;32;20216;-74
2020/12/15 01:16:09;;;;;;;23.60;18.03;;;9.40;99.90;;;;;;4397975;32;20599;-73
2020/12/15 01:18:35;;;;;;;19.87;16.50;;;9.40;99.90;;;;;;4406260;32;20224;-73
2020/12/15 01:21:02;;;;;;;24.70;19.17;;;9.40;99.90;;;;;;4406922;32;20286;-71
2020/12/15 01:23:31;;;;;;;25.90;19.37;;;9.40;99.90;;;;;;4397273;32;20183;-71
2020/12/15 01:26:11;;;;;;;26.40;18.47;;;9.30;99.90;;;;;;4397453;32;20215;-72
2020/12/15 01:28:37;;;;;;;22.07;17.20;;;9.30;99.90;;;;;;4399636;32;20181;-70
2020/12/15 01:31:05;;;;;;;21.20;18.07;;;9.20;99.90;;;;;;4392055;32;20163;-72
2020/12/15 01:33:36;;;;;;;22.70;17.07;;;9.30;99.90;;;;;;4396341;32;20148;-71
2020/12/15 01:36:08;;;;;;;24.27;18.93;;;9.50;99.90;;;;;;4392248;32;20532;-72
2020/12/15 01:38:34;;;;;;;23.60;18.43;;;9.30;99.90;;;;;;4401122;32;20474;-72
2020/12/15 01:41:01;;;;;;;24.20;18.50;;;9.30;99.90;;;;;;4407392;32;20200;-71
2020/12/15 01:43:27;;;;;;;27.27;20.00;;;9.30;99.90;;;;;;4403565;32;20259;-71
2020/12/15 01:45:53;;;;;;;25.67;19.03;;;9.30;99.90;;;;;;4408727;32;20203;-72
2020/12/15 01:48:19;;;;;;;28.60;19.53;;;9.30;99.90;;;;;;4406939;32;20212;-72
2020/12/15 01:50:47;;;;;;;27.93;19.50;;;9.30;99.90;;;;;;4406488;32;20195;-73
2020/12/15 01:53:13;;;;;;;24.33;18.47;;;9.20;99.90;;;;;;4392365;32;20219;-72
2020/12/15 01:55:41;;;;;;;26.37;18.40;;;9.30;99.90;;;;;;4391369;32;20217;-70
2020/12/15 01:58:08;;;;;;;24.83;18.80;;;9.30;99.90;;;;;;4395264;32;20292;-71
2020/12/15 02:00:35;;;;;;;23.03;19.17;;;9.30;99.90;;;;;;4397907;32;20185;-75
2020/12/15 02:03:04;;;;;;;26.00;18.77;;;9.30;99.90;;;;;;4402059;32;20249;-72
2020/12/15 02:05:30;;;;;;;24.70;19.07;;;9.30;99.90;;;;;;4397085;32;20204;-71
2020/12/15 02:07:58;;;;;;;24.67;18.77;;;9.30;99.90;;;;;;4392142;32;20262;-74
2020/12/15 02:10:25;;;;;;;26.90;19.57;;;9.20;99.90;;;;;;4395377;32;20631;-71
2020/12/15 02:12:51;;;;;;;23.47;19.13;;;9.30;99.90;;;;;;4394246;32;20211;-70
2020/12/15 02:15:18;;;;;;;24.80;19.30;;;9.30;99.90;;;;;;4392987;32;20155;-71
2020/12/15 02:17:44;;;;;;;21.70;17.93;;;9.30;99.90;;;;;;4394954;32;20302;-72
2020/12/15 02:20:11;;;;;;;25.07;18.00;;;9.30;99.90;;;;;;4398498;32;20619;-72
2020/12/15 02:22:38;;;;;;;21.13;16.33;;;9.30;99.90;;;;;;4391189;32;20239;-71
2020/12/15 02:25:05;;;;;;;22.33;18.10;;;9.40;99.90;;;;;;4391640;32;20314;-72
2020/12/15 02:27:32;;;;;;;21.53;17.23;;;9.40;99.90;;;;;;4398449;32;20173;-71
2020/12/15 02:29:58;;;;;;;24.13;18.43;;;9.30;99.90;;;;;;4404634;32;20209;-72
2020/12/15 02:32:24;;;;;;;22.97;18.60;;;9.40;99.90;;;;;;4404435;32;20163;-74
2020/12/15 02:34:56;;;;;;;21.13;17.00;;;9.40;99.90;;;;;;4405479;32;20211;-74
2020/12/15 02:37:23;;;;;;;23.53;17.87;;;9.50;99.90;;;;;;4398521;32;20183;-72
2020/12/15 02:39:51;;;;;;;22.63;16.47;;;9.40;99.90;;;;;;4405919;32;20187;-71
2020/12/15 02:42:19;;;;;;;24.60;18.53;;;9.40;99.90;;;;;;4402689;32;20195;-72
2020/12/15 02:44:45;;;;;;;23.37;18.20;;;9.40;99.90;;;;;;4406073;32;20190;-72
2020/12/15 02:47:11;;;;;;;22.93;18.00;;;9.40;99.90;;;;;;4399555;32;20220;-73
2020/12/15 02:49:38;;;;;;;19.83;16.67;;;9.40;99.90;;;;;;4391048;32;20195;-72
2020/12/15 02:52:10;;;;;;;26.73;18.37;;;9.40;99.90;;;;;;4393064;32;20170;-74
2020/12/15 02:54:36;;;;;;;19.93;16.93;;;9.30;99.90;;;;;;4394693;32;20174;-72
2020/12/15 02:57:04;;;;;;;20.07;16.77;;;9.30;99.90;;;;;;4397303;32;20205;-72
2020/12/15 02:59:34;;;;;;;21.40;17.17;;;9.30;99.90;;;;;;4405538;32;20164;-73
2020/12/15 03:02:02;;;;;;;22.10;17.97;;;9.50;99.90;;;;;;4393817;32;20276;-74
2020/12/15 03:04:28;;;;;;;21.73;17.20;;;9.40;99.90;;;;;;4394557;32;20155;-73
2020/12/15 03:06:55;;;;;;;20.83;17.67;;;9.50;99.90;;;;;;4401789;32;20219;-75
2020/12/15 03:09:21;;;;;;;24.30;17.70;;;9.40;99.90;;;;;;4390075;32;20191;-71
2020/12/15 03:11:47;;;;;;;22.07;17.13;;;9.40;99.90;;;;;;4390842;32;20209;-72
2020/12/15 03:14:14;;;;;;;23.13;17.10;;;9.40;99.90;;;;;;4390831;32;20229;-72
2020/12/15 03:16:41;;;;;;;19.17;16.23;;;9.50;99.90;;;;;;4394401;32;20221;-72
2020/12/15 03:19:07;;;;;;;20.37;16.87;;;9.40;99.90;;;;;;4398590;32;20224;-72
2020/12/15 03:21:35;;;;;;;23.43;16.33;;;9.50;99.90;;;;;;4396285;32;20227;-73
2020/12/15 03:24:03;;;;;;;18.53;14.93;;;9.50;99.90;;;;;;4401824;32;20179;-73
2020/12/15 03:26:31;;;;;;;23.23;17.40;;;9.50;99.90;;;;;;4395993;32;20222;-72
2020/12/15 03:28:57;;;;;;;19.47;16.17;;;9.50;99.90;;;;;;4389906;32;20204;-73
2020/12/15 03:31:26;;;;;;;22.07;16.67;;;9.50;99.90;;;;;;4391829;32;20173;-74
2020/12/15 03:33:52;;;;;;;22.23;17.53;;;9.50;99.90;;;;;;4389871;32;20188;-72
2020/12/15 03:36:20;;;;;;;20.10;15.07;;;9.50;99.90;;;;;;4390515;32;20177;-71
2020/12/15 03:38:47;;;;;;;19.73;14.63;;;9.50;99.90;;;;;;4400290;32;20184;-71
2020/12/15 03:41:13;;;;;;;17.80;14.77;;;9.50;99.90;;;;;;4399911;32;20223;-73
2020/12/15 03:43:39;;;;;;;24.20;18.03;;;9.50;99.90;;;;;;4390541;32;20212;-72
2020/12/15 03:46:06;;;;;;;20.67;16.47;;;9.50;99.90;;;;;;4396428;32;20231;-72
2020/12/15 03:48:33;;;;;;;22.30;16.60;;;9.50;99.90;;;;;;4404225;32;20595;-71
2020/12/15 03:50:59;;;;;;;23.03;16.43;;;9.50;99.90;;;;;;4394477;32;20497;-74
2020/12/15 03:53:25;;;;;;;23.10;17.23;;;9.40;99.90;;;;;;4392241;32;20183;-73
2020/12/15 03:55:53;;;;;;;23.03;17.07;;;9.40;99.90;;;;;;4390627;32;20172;-72
2020/12/15 03:58:20;;;;;;;23.70;18.37;;;9.50;99.90;;;;;;4389825;32;20193;-73
2020/12/15 04:00:46;;;;;;;21.70;17.17;;;9.40;99.90;;;;;;4390112;32;20157;-71
2020/12/15 04:03:12;;;;;;;24.03;18.07;;;9.50;99.90;;;;;;4400838;32;20165;-72
2020/12/15 04:05:39;;;;;;;22.17;18.07;;;9.40;99.90;;;;;;4393946;32;20332;-71
2020/12/15 04:08:06;;;;;;;24.57;19.23;;;9.50;99.90;;;;;;4396723;32;20623;-72
2020/12/15 04:10:32;;;;;;;25.27;18.43;;;9.50;99.90;;;;;;4404800;32;20211;-72
2020/12/15 04:12:58;;;;;;;23.03;17.30;;;9.50;99.90;;;;;;4403318;32;20157;-72
2020/12/15 04:15:29;;;;;;;22.87;17.87;;;9.60;99.90;;;;;;4397110;32;20596;-73
2020/12/15 04:17:58;;;;;;;25.50;18.70;;;9.60;99.90;;;;;;4398857;32;20175;-73
2020/12/15 04:20:28;;;;;;;22.80;17.90;;;9.60;99.90;;;;;;4397499;32;20145;-72
2020/12/15 04:22:56;;;;;;;21.43;17.60;;;9.80;99.90;;;;;;4395402;32;20555;-73
2020/12/15 04:25:22;;;;;;;23.17;17.40;;;9.60;99.90;;;;;;4404586;32;20141;-72
2020/12/15 04:27:50;;;;;;;22.07;17.97;;;9.50;99.90;;;;;;4393435;32;20587;-72
2020/12/15 04:30:20;;;;;;;23.37;16.57;;;9.50;99.90;;;;;;4390569;32;20521;-72
2020/12/15 04:32:46;;;;;;;23.43;18.10;;;9.60;99.90;;;;;;4394510;32;20633;-72
2020/12/15 04:35:15;;;;;;;19.37;15.80;;;9.60;99.90;;;;;;4402885;32;20235;-72
2020/12/15 04:37:41;;;;;;;21.93;16.20;;;9.60;99.90;;;;;;4393865;32;20185;-72
2020/12/15 04:40:09;;;;;;;19.20;16.63;;;9.60;99.90;;;;;;4394818;32;20211;-72
2020/12/15 04:42:36;;;;;;;19.23;16.83;;;9.60;99.90;;;;;;4400444;32;20145;-72
2020/12/15 04:45:03;;;;;;;21.20;16.27;;;9.60;99.90;;;;;;4394608;32;20181;-71
2020/12/15 04:47:34;;;;;;;23.07;17.67;;;9.70;99.90;;;;;;4400063;32;20207;-73
2020/12/15 04:50:03;;;;;;;24.27;17.43;;;9.60;99.90;;;;;;4392323;32;20156;-73
2020/12/15 04:52:52;;;;;;;23.40;17.43;;;9.60;99.90;;;;;;4401515;32;20205;-72
2020/12/15 04:55:21;;;;;;;23.57;17.03;;;9.60;99.90;;;;;;4394127;32;20243;-73
2020/12/15 04:57:48;;;;;;;20.47;15.37;;;9.60;99.90;;;;;;4393820;32;20202;-74
2020/12/15 05:00:16;;;;;;;20.43;16.23;;;9.70;99.90;;;;;;4391796;32;20216;-72
2020/12/15 05:02:47;;;;;;;19.53;16.30;;;9.60;99.90;;;;;;4393016;32;20216;-73
2020/12/15 05:05:14;;;;;;;20.73;16.93;;;9.50;99.90;;;;;;4395170;32;20153;-74
2020/12/15 05:07:42;;;;;;;21.43;16.60;;;9.50;99.90;;;;;;4392331;32;20221;-71
2020/12/15 05:10:09;;;;;;;17.93;14.87;;;9.50;99.90;;;;;;4399228;32;20564;-76
2020/12/15 05:12:37;;;;;;;19.43;16.03;;;9.50;99.90;;;;;;4407049;32;20514;-75
2020/12/15 05:15:08;;;;;;;19.23;14.67;;;9.60;99.90;;;;;;4407540;32;20146;-74
2020/12/15 05:17:35;;;;;;;20.17;15.23;;;9.60;99.90;;;;;;4401605;32;20212;-74
2020/12/15 05:20:01;;;;;;;18.40;14.57;;;9.70;99.90;;;;;;4408894;32;20537;-73
2020/12/15 05:22:38;;;;;;;20.27;15.57;;;9.60;99.90;;;;;;4402304;32;20601;-74
2020/12/15 05:25:05;;;;;;;20.30;14.57;;;9.60;99.90;;;;;;4407322;32;20164;-73
2020/12/15 05:27:31;;;;;;;19.03;15.17;;;9.60;99.90;;;;;;4401091;32;20164;-73
2020/12/15 05:30:11;;;;;;;16.37;14.30;;;9.70;99.90;;;;;;4390000;32;20200;-74
2020/12/15 05:32:48;;;;;;;19.60;13.97;;;9.60;99.90;;;;;;4393802;32;20162;-74
2020/12/15 05:35:15;;;;;;;15.83;14.10;;;9.60;99.90;;;;;;4391442;32;20196;-74
2020/12/15 05:37:44;;;;;;;18.07;12.97;;;9.60;99.90;;;;;;4390890;32;20552;-75
2020/12/15 05:40:11;;;;;;;17.23;13.63;;;9.60;99.90;;;;;;4405006;32;20652;-73
2020/12/15 05:42:38;;;;;;;15.30;12.47;;;9.50;99.90;;;;;;4406806;32;20605;-74
2020/12/15 05:45:06;;;;;;;16.97;13.07;;;9.50;99.90;;;;;;4392545;32;20267;-72
2020/12/15 05:47:33;;;;;;;18.37;12.87;;;9.60;99.90;;;;;;4407550;32;20220;-71
2020/12/15 05:50:00;;;;;;;16.03;12.07;;;9.60;99.90;;;;;;4401793;32;20219;-71
2020/12/15 05:52:27;;;;;;;14.60;11.97;;;9.60;99.90;;;;;;4400347;32;20177;-71
2020/12/15 05:55:05;;;;;;;17.57;12.47;;;9.60;99.90;;;;;;4402800;32;20624;-71
2020/12/15 05:57:31;;;;;;;17.33;12.17;;;9.60;99.90;;;;;;4406743;32;20210;-71
2020/12/15 06:00:08;;;;;;;16.67;12.87;;;9.60;99.90;;;;;;4393752;32;20199;-73
2020/12/15 06:02:35;;;;;;;16.90;11.80;;;9.60;99.90;;;;;;4400760;32;20155;-72
2020/12/15 06:05:02;;;;;;;18.37;12.97;;;9.50;99.90;;;;;;4395773;32;20477;-72
2020/12/15 06:07:31;;;;;;;15.83;11.83;;;9.50;99.90;;;;;;4404830;32;20597;-73
2020/12/15 06:09:58;;;;;;;14.87;11.70;;;9.60;99.90;;;;;;4394566;32;20274;-71
2020/12/15 06:12:25;;;;;;;15.17;11.43;;;9.60;99.90;;;;;;4391207;32;20158;-72
2020/12/15 06:14:52;;;;;;;14.77;11.17;;;9.60;99.90;;;;;;4405067;32;20152;-72
2020/12/15 06:17:33;;;;;;;13.53;11.37;;;9.60;99.90;;;;;;4399830;32;20183;-73
2020/12/15 06:20:01;;;;;;;15.67;11.20;;;9.50;99.90;;;;;;4395278;32;20152;-73
2020/12/15 06:22:29;;;;;;;18.80;12.77;;;9.50;99.90;;;;;;4394912;32;20496;-73
2020/12/15 06:25:03;;;;;;;18.23;11.87;;;9.50;99.90;;;;;;4398167;32;20217;-71
2020/12/15 06:30:41;;;;;;;15.23;11.40;;;9.40;99.90;;;;;;4389399;32;20251;-72
2020/12/15 06:33:21;;;;;;;;;;;;;;;;;;;;;
2020/12/15 06:35:49;;;;;;;13.73;11.13;;;9.40;99.90;;;;;;4390437;32;20176;-71
2020/12/15 06:38:18;;;;;;;19.03;12.70;;;9.40;99.90;;;;;;4395164;32;20214;-70
2020/12/15 06:40:46;;;;;;;15.00;11.87;;;9.50;99.90;;;;;;4398568;32;20530;-69
2020/12/15 06:43:24;;;;;;;14.43;11.37;;;9.40;99.90;;;;;;4391793;32;20228;-72
2020/12/15 06:45:52;;;;;;;14.77;11.83;;;9.40;99.90;;;;;;4394184;32;20201;-73
2020/12/15 06:48:23;;;;;;;20.67;15.07;;;9.30;99.90;;;;;;4394881;32;20223;-72
2020/12/15 06:50:51;;;;;;;17.57;13.00;;;9.30;99.90;;;;;;4393878;32;20263;-72
2020/12/15 06:53:19;;;;;;;16.73;12.30;;;9.30;99.90;;;;;;4393863;32;20167;-72
2020/12/15 06:55:47;;;;;;;15.10;12.70;;;9.30;99.90;;;;;;4395863;32;20482;-71
2020/12/15 06:58:22;;;;;;;16.03;11.97;;;9.40;99.90;;;;;;4393529;32;20883;-72
2020/12/15 07:00:56;;;;;;;16.27;11.60;;;9.40;99.90;;;;;;4394929;32;20225;-70
2020/12/15 07:03:34;;;;;;;15.40;11.37;;;9.50;99.90;;;;;;4390977;32;20224;-72
2020/12/15 07:06:13;;;;;;;16.07;11.80;;;9.40;99.90;;;;;;4390796;32;20161;-72
2020/12/15 07:08:42;;;;;;;17.67;12.57;;;9.40;99.90;;;;;;4394655;32;20486;-73
2020/12/15 07:11:14;;;;;;;17.37;13.27;;;9.30;99.90;;;;;;4392819;32;20203;-72
2020/12/15 07:13:40;;;;;;;17.57;12.80;;;9.30;99.90;;;;;;4391410;32;20182;-72
2020/12/15 07:16:17;;;;;;;14.73;11.87;;;9.30;99.90;;;;;;4393182;32;20659;-72
2020/12/15 07:18:43;;;;;;;18.73;13.20;;;9.30;99.90;;;;;;4393064;32;20220;-71
2020/12/15 07:21:17;;;;;;;15.00;12.50;;;9.30;99.90;;;;;;4392405;32;20182;-71
2020/12/15 07:23:52;;;;;;;16.33;14.17;;;9.30;99.90;;;;;;4390086;32;20155;-72
2020/12/15 07:26:22;;;;;;;14.27;12.20;;;9.40;99.90;;;;;;4390830;32;20232;-73
2020/12/15 07:28:57;;;;;;;19.80;12.27;;;9.40;99.90;;;;;;4393227;32;20539;-73
2020/12/15 07:31:30;;;;;;;18.27;13.70;;;9.40;99.90;;;;;;4391335;32;20701;-70
2020/12/15 07:34:13;;;;;;;17.30;12.60;;;9.40;99.90;;;;;;4391097;32;20168;-71
2020/12/15 07:36:47;;;;;;;15.60;11.67;;;9.40;99.90;;;;;;4147571;32;8052382;-69
2020/12/15 07:39:18;;;;;;;16.23;12.87;;;9.40;99.90;;;;;;4393936;32;20679;-72
2020/12/15 07:42:00;;;;;;;15.33;12.30;;;9.50;99.90;;;;;;4393082;32;20176;-71
2020/12/15 07:44:27;;;;;;;15.40;12.30;;;9.40;99.90;;;;;;4390618;32;20569;-71
2020/12/15 07:46:56;;;;;;;14.90;12.10;;;9.40;99.90;;;;;;4389829;32;20261;-71
2020/12/15 07:49:27;;;;;;;15.70;12.87;;;9.40;99.90;;;;;;4394476;32;20195;-71
2020/12/15 07:51:58;;;;;;;16.63;13.00;;;9.40;99.90;;;;;;4392880;32;20166;-71
2020/12/15 07:54:26;;;;;;;16.13;12.57;;;9.50;99.90;;;;;;4392326;32;20174;-72
2020/12/15 07:56:53;;;;;;;17.37;13.40;;;9.50;99.90;;;;;;4391215;32;20164;-70
2020/12/15 07:59:27;;;;;;;16.17;12.20;;;9.40;99.90;;;;;;4389834;32;20175;-71
2020/12/15 08:01:54;;;;;;;16.87;12.17;;;9.50;99.90;;;;;;4390507;32;20152;-72
2020/12/15 08:04:27;;;;;;;16.17;11.47;;;9.60;99.90;;;;;;4392117;32;20168;-71
2020/12/15 08:07:04;;;;;;;18.00;11.77;;;9.50;99.90;;;;;;4389596;32;20249;-71
2020/12/15 08:09:32;;;;;;;15.97;12.47;;;9.60;99.90;;;;;;4393507;32;20678;-71
2020/12/15 08:11:58;;;;;;;20.03;12.90;;;9.50;99.90;;;;;;4394146;32;20228;-71
2020/12/15 08:14:26;;;;;;;16.27;12.73;;;9.50;99.90;;;;;;4393216;32;20173;-70
2020/12/15 08:17:13;;;;;;;17.80;13.00;;;9.60;99.90;;;;;;4391692;32;20176;-71
2020/12/15 08:19:43;;;;;;;15.20;12.20;;;9.60;99.90;;;;;;4387333;32;20229;-71
2020/12/15 08:22:10;;;;;;;15.83;12.57;;;9.60;99.90;;;;;;4392452;32;20559;-70
2020/12/15 08:24:41;;;;;;;19.27;13.43;;;9.60;99.90;;;;;;4390283;32;20183;-69
2020/12/15 08:27:13;;;;;;;18.30;12.63;;;9.70;99.90;;;;;;4390035;32;20231;-71
2020/12/15 08:29:46;;;;;;;18.73;13.70;;;9.70;99.90;;;;;;4391217;32;20180;-69
2020/12/15 08:32:30;;;;;;;19.67;12.60;;;9.60;99.90;;;;;;4392113;32;20239;-70
2020/12/15 08:35:05;;;;;;;14.73;11.77;;;9.50;99.90;;;;;;4393108;32;20195;-72
2020/12/15 08:37:37;;;;;;;19.40;14.07;;;9.50;99.90;;;;;;4390957;32;20171;-71
2020/12/15 08:40:07;;;;;;;19.03;13.10;;;9.60;99.90;;;;;;4391798;32;20172;-71
2020/12/15 08:42:46;;;;;;;16.03;12.63;;;9.60;99.90;;;;;;4390892;32;20220;-71
2020/12/15 08:45:17;;;;;;;20.87;15.57;;;9.60;99.90;;;;;;4392724;32;20263;-69
2020/12/15 08:47:58;;;;;;;18.23;12.80;;;9.60;99.90;;;;;;4389274;32;20183;-70
2020/12/15 08:50:33;;;;;;;16.60;13.93;;;9.60;99.90;;;;;;4389106;32;20160;-69
2020/12/15 08:53:14;;;;;;;18.20;13.10;;;9.70;99.90;;;;;;4393845;32;20560;-71
2020/12/15 08:55:43;;;;;;;16.77;13.97;;;9.70;99.90;;;;;;4389078;32;20202;-70
2020/12/15 08:58:13;;;;;;;16.03;13.60;;;9.70;99.90;;;;;;4392805;32;20169;-70
2020/12/15 09:00:43;;;;;;;17.80;13.70;;;9.70;99.90;;;;;;4395551;32;20196;-70
2020/12/15 09:03:15;;;;;;;22.13;14.17;;;9.70;99.90;;;;;;4390831;32;20202;-71
2020/12/15 09:05:51;;;;;;;17.33;14.30;;;9.70;99.90;;;;;;4390549;32;20151;-71
2020/12/15 09:08:23;;;;;;;16.80;13.37;;;9.70;99.90;;;;;;4394819;32;20190;-69
2020/12/15 09:10:53;;;;;;;18.57;14.50;;;9.70;99.90;;;;;;4390274;32;20204;-69
2020/12/15 09:13:32;;;;;;;17.70;13.83;;;9.70;99.90;;;;;;4394241;32;20155;-70
2020/12/15 09:16:06;;;;;;;20.03;13.53;;;9.80;99.90;;;;;;4392237;32;20158;-69
2020/12/15 09:18:34;;;;;;;18.27;13.70;;;9.80;99.90;;;;;;4393262;32;20180;-69
2020/12/15 09:21:12;;;;;;;18.37;13.27;;;9.80;99.90;;;;;;4390958;32;20999;-69
2020/12/15 09:23:43;;;;;;;15.27;13.37;;;9.80;99.90;;;;;;4393451;32;20491;-69
2020/12/15 09:26:10;;;;;;;17.47;13.77;;;9.80;99.90;;;;;;4393427;32;20487;-69
2020/12/15 09:28:36;;;;;;;18.53;14.90;;;9.80;99.90;;;;;;4393301;32;20508;-69
2020/12/15 09:31:12;;;;;;;20.70;15.37;;;9.90;99.90;;;;;;4392245;32;20178;-70
2020/12/15 09:33:43;;;;;;;18.47;14.77;;;9.90;99.90;;;;;;4393834;32;20195;-69
2020/12/15 09:36:18;;;;;;;19.03;15.33;;;9.90;99.90;;;;;;4394224;32;21059;-70
2020/12/15 09:38:46;;;;;;;19.40;14.87;;;9.90;99.90;;;;;;4396068;32;20483;-69
2020/12/15 09:41:14;;;;;;;18.33;14.13;;;9.80;99.90;;;;;;4393940;32;20172;-69
2020/12/15 09:43:49;;;;;;;22.00;15.37;;;9.90;99.90;;;;;;4389125;32;20556;-69
2020/12/15 09:46:28;;;;;;;17.00;14.70;;;10.00;99.90;;;;;;4393930;32;20163;-69
2020/12/15 09:48:59;;;;;;;18.20;14.00;;;10.00;99.90;;;;;;4392772;32;20157;-69
2020/12/15 09:51:35;;;;;;;18.53;14.70;;;10.00;99.90;;;;;;4398854;32;20160;-69
2020/12/15 09:54:08;;;;;;;18.37;14.73;;;10.00;99.90;;;;;;4394943;32;20570;-70
2020/12/15 09:56:42;;;;;;;19.73;14.53;;;10.00;99.90;;;;;;4391329;32;20197;-68
2020/12/15 09:59:08;;;;;;;20.20;14.90;;;10.10;99.90;;;;;;4392851;32;20187;-69
2020/12/15 10:01:35;;;;;;;21.13;14.63;;;10.10;99.90;;;;;;4394344;32;20172;-69
2020/12/15 10:04:15;;;;;;;20.57;15.30;;;10.10;99.90;;;;;;4393406;32;20162;-69
2020/12/15 10:06:43;;;;;;;21.97;16.23;;;10.10;99.90;;;;;;4400034;32;20168;-69
2020/12/15 10:09:16;;;;;;;19.53;16.30;;;10.10;99.90;;;;;;4390863;32;20189;-69
2020/12/15 10:11:43;;;;;;;23.60;16.30;;;10.10;99.90;;;;;;4403001;32;20589;-69
2020/12/15 10:14:12;;;;;;;21.63;15.73;;;10.10;99.90;;;;;;4396133;32;20176;-69
2020/12/15 10:16:39;;;;;;;21.20;17.13;;;10.20;99.90;;;;;;4397162;32;20191;-69
2020/12/15 10:19:11;;;;;;;21.63;16.13;;;10.20;99.90;;;;;;4394490;32;20211;-70
2020/12/15 10:21:41;;;;;;;20.73;16.67;;;10.20;99.90;;;;;;4392783;32;20643;-69
2020/12/15 10:24:07;;;;;;;20.47;17.00;;;10.30;99.90;;;;;;4396071;32;20200;-69
2020/12/15 10:26:34;;;;;;;22.50;17.70;;;10.30;99.90;;;;;;4397259;32;20205;-70
2020/12/15 10:29:01;;;;;;;23.13;17.20;;;10.30;99.90;;;;;;4397576;32;20266;-70
2020/12/15 10:31:27;;;;;;;21.90;17.50;;;10.20;99.90;;;;;;4396058;32;20192;-69
2020/12/15 10:33:56;;;;;;;22.83;17.23;;;10.30;99.90;;;;;;4393619;32;20156;-69
2020/12/15 10:36:26;;;;;;;24.43;16.90;;;10.30;99.90;;;;;;4392508;32;20210;-69
2020/12/15 10:38:53;;;;;;;21.80;17.43;;;10.30;99.90;;;;;;4392816;32;20175;-69
2020/12/15 10:41:25;;;;;;;21.67;17.03;;;10.40;99.90;;;;;;4394858;32;20161;-70
2020/12/15 10:43:54;;;;;;;22.57;17.17;;;10.30;99.90;;;;;;4394167;32;20157;-70
2020/12/15 10:46:29;;;;;;;22.67;17.73;;;10.40;99.90;;;;;;4395563;32;20571;-69
2020/12/15 10:48:55;;;;;;;23.50;18.33;;;10.30;99.90;;;;;;4395177;32;20160;-70
2020/12/15 10:51:25;;;;;;;24.90;18.60;;;10.40;99.90;;;;;;4397630;32;20174;-70
2020/12/15 10:53:51;;;;;;;23.17;16.57;;;10.40;99.90;;;;;;4392128;32;20249;-69
2020/12/15 10:56:22;;;;;;;28.03;19.30;;;10.50;99.90;;;;;;4388875;32;20219;-69
2020/12/15 10:58:48;;;;;;;26.27;18.80;;;10.40;99.90;;;;;;4392205;32;20255;-70
2020/12/15 11:01:20;;;;;;;22.67;18.13;;;10.40;99.90;;;;;;4394568;32;20219;-70
2020/12/15 11:03:49;;;;;;;25.00;20.17;;;10.40;99.90;;;;;;4399060;32;20172;-71
2020/12/15 11:06:21;;;;;;;23.90;17.87;;;10.40;99.90;;;;;;4397379;32;20229;-71
2020/12/15 11:08:48;;;;;;;25.40;19.07;;;10.40;99.90;;;;;;4392820;32;20153;-71
2020/12/15 11:11:15;;;;;;;23.93;19.80;;;10.40;99.90;;;;;;4394116;32;20214;-70
2020/12/15 11:13:41;;;;;;;25.33;18.80;;;10.40;99.90;;;;;;4390592;32;20187;-71
2020/12/15 11:16:08;;;;;;;25.87;19.47;;;10.40;99.90;;;;;;4389763;32;20205;-70
2020/12/15 11:18:35;;;;;;;25.20;19.83;;;10.40;99.90;;;;;;4394612;32;20157;-69
2020/12/15 11:21:04;;;;;;;22.77;18.67;;;10.30;99.90;;;;;;4391884;32;20491;-69
2020/12/15 11:23:36;;;;;;;25.80;18.90;;;10.50;99.90;;;;;;4389570;32;20164;-69
2020/12/15 11:26:06;;;;;;;29.60;19.27;;;10.50;99.90;;;;;;4395755;32;20174;-69
2020/12/15 11:28:36;;;;;;;26.13;19.07;;;10.50;99.90;;;;;;4396164;32;20326;-69
2020/12/15 11:31:02;;;;;;;26.50;19.13;;;10.50;99.90;;;;;;4395407;32;20668;-70
2020/12/15 11:33:29;;;;;;;30.33;19.03;;;10.50;99.90;;;;;;4394330;32;20504;-69
2020/12/15 11:35:57;;;;;;;31.90;20.10;;;10.50;99.90;;;;;;4392007;32;20219;-70
2020/12/15 11:38:23;;;;;;;24.70;18.43;;;10.50;99.90;;;;;;4394733;32;20921;-70
2020/12/15 11:40:50;;;;;;;24.13;18.60;;;10.50;99.90;;;;;;4396864;32;20509;-69
2020/12/15 11:43:29;;;;;;;26.13;20.73;;;10.50;99.90;;;;;;4390192;32;20482;-68
2020/12/15 11:49:07;;;;;;;25.67;19.67;;;10.50;99.90;;;;;;4236490;33;20213;-70
2020/12/15 11:51:39;;;;;;;24.47;18.37;;;10.60;99.90;;;;;;4241267;33;20165;-69
2020/12/15 11:54:07;;;;;;;21.73;17.63;;;10.60;99.90;;;;;;4237462;33;20463;-70
2020/12/15 11:56:35;;;;;;;27.70;19.80;;;10.60;99.90;;;;;;4238467;33;20169;-70
2020/12/15 11:59:04;;;;;;;30.27;20.57;;;10.60;99.90;;;;;;4240151;33;20184;-70
2020/12/15 12:01:35;;;;;;;22.73;17.97;;;10.60;99.90;;;;;;4238401;33;20224;-70
2020/12/15 12:04:10;;;;;;;24.33;18.67;;;10.60;99.90;;;;;;4239484;33;20609;-70
2020/12/15 12:06:40;;;;;;;22.80;18.47;;;10.50;99.90;;;;;;4240557;33;20163;-70
2020/12/15 12:09:09;;;;;;;26.40;19.30;;;10.50;99.90;;;;;;4240744;33;20218;-71
2020/12/15 12:11:36;;;;;;;24.63;18.60;;;10.50;99.90;;;;;;4240368;33;20496;-69
2020/12/15 12:14:06;;;;;;;23.23;18.70;;;10.50;99.90;;;;;;4370184;32;20295;-70
2020/12/15 12:16:34;;;;;;;25.57;18.77;;;10.50;99.90;;;;;;4393810;32;20163;-70
2020/12/15 12:19:03;;;;;;;28.20;19.77;;;10.60;99.90;;;;;;4388073;32;20224;-70
2020/12/15 12:21:33;;;;;;;23.77;17.80;;;10.60;99.90;;;;;;4392048;32;20231;-70
2020/12/15 12:23:59;;;;;;;26.77;21.23;;;10.50;99.90;;;;;;4395899;32;20173;-71
2020/12/15 12:26:26;;;;;;;24.03;18.70;;;10.60;99.90;;;;;;4395611;32;20148;-69
2020/12/15 12:28:53;;;;;;;25.57;20.40;;;10.50;99.90;;;;;;4395752;32;20259;-70
2020/12/15 12:31:19;;;;;;;28.77;19.93;;;10.50;99.90;;;;;;4395061;32;20234;-69
2020/12/15 12:33:46;;;;;;;27.30;20.50;;;10.50;99.90;;;;;;4390886;32;20503;-71
2020/12/15 12:36:14;;;;;;;26.20;19.77;;;10.60;99.90;;;;;;4393885;32;20499;-71
2020/12/15 12:38:41;;;;;;;25.97;20.17;;;10.60;99.90;;;;;;4393127;32;20158;-72
2020/12/15 12:41:13;;;;;;;24.83;18.93;;;10.60;99.90;;;;;;4392933;32;20171;-69
2020/12/15 12:43:40;;;;;;;25.30;20.33;;;10.60;99.90;;;;;;4392731;32;20659;-70
2020/12/15 12:46:07;;;;;;;28.23;19.83;;;10.60;99.90;;;;;;4393434;32;20494;-71
2020/12/15 12:48:33;;;;;;;27.53;20.33;;;10.70;99.90;;;;;;4393681;32;20528;-71
2020/12/15 12:51:00;;;;;;;25.13;20.20;;;10.70;99.90;;;;;;4391523;32;20235;-69
2020/12/15 12:53:26;;;;;;;26.17;21.37;;;10.60;99.90;;;;;;4393283;32;20165;-71